Time;durP1;ratioP1;P1;durP2;ratioP2;P2;SDS_P1;SDS_P2;PMS_P1;PMS_P2;Temp;Humidity;BMP_temperature;BMP_pressure;BME280_temperature;BME280_humidity;BME280_pressure;Samples;Min_cycle;Max_cycle;Signal;HPM_P1;HPM_P2
2022/07/04 00:00:27;;;;;;;4.03;3.13;;;16.70;99.90;;;;;;5084128;28;20172;-84
2022/07/04 00:02:53;;;;;;;3.03;2.80;;;16.70;99.90;;;;;;5084240;28;20181;-84
2022/07/04 00:05:19;;;;;;;8.20;3.33;;;16.90;99.90;;;;;;5086248;28;20171;-84
2022/07/04 00:07:47;;;;;;;7.23;2.83;;;16.90;99.90;;;;;;5089384;28;20200;-84
2022/07/04 00:10:14;;;;;;;4.73;3.30;;;16.60;99.90;;;;;;5087260;28;20202;-84
2022/07/04 00:12:40;;;;;;;6.33;3.23;;;16.70;99.90;;;;;;5088788;28;20177;-84
2022/07/04 00:15:07;;;;;;;6.10;3.23;;;16.50;99.90;;;;;;5090117;28;20173;-84
2022/07/04 00:17:33;;;;;;;3.70;3.07;;;16.50;99.90;;;;;;5088226;28;20206;-84
2022/07/04 00:19:59;;;;;;;5.30;3.17;;;16.50;99.90;;;;;;5089917;28;20314;-84
2022/07/04 00:22:25;;;;;;;6.77;3.20;;;16.40;99.90;;;;;;5086948;28;20687;-84
2022/07/04 00:24:51;;;;;;;5.33;3.23;;;16.40;99.90;;;;;;5087457;28;20181;-84
2022/07/04 00:27:16;;;;;;;3.77;3.13;;;16.40;99.90;;;;;;5087768;28;20239;-84
2022/07/04 00:29:42;;;;;;;4.00;3.20;;;16.30;99.90;;;;;;5088678;28;20197;-85
2022/07/04 00:32:08;;;;;;;4.20;3.20;;;16.50;99.90;;;;;;5088465;28;20659;-85
2022/07/04 00:34:33;;;;;;;6.37;3.10;;;16.40;99.90;;;;;;5089619;28;20165;-84
2022/07/04 00:36:59;;;;;;;5.80;3.20;;;16.20;99.90;;;;;;5090139;28;20204;-84
2022/07/04 00:39:25;;;;;;;6.93;3.70;;;16.20;99.90;;;;;;5090385;28;20299;-84
2022/07/04 00:41:50;;;;;;;5.70;3.30;;;16.10;99.90;;;;;;5088263;28;20177;-84
2022/07/04 00:44:16;;;;;;;5.97;3.70;;;15.80;99.90;;;;;;5089444;28;20648;-84
2022/07/04 00:46:42;;;;;;;4.50;3.07;;;15.80;99.90;;;;;;5090422;28;20198;-84
2022/07/04 00:49:09;;;;;;;6.07;3.40;;;15.70;99.90;;;;;;5089425;28;20192;-84
2022/07/04 00:51:36;;;;;;;5.53;3.00;;;15.80;99.90;;;;;;5089073;28;20171;-84
2022/07/04 00:54:02;;;;;;;4.57;3.37;;;15.80;99.90;;;;;;5091354;28;20705;-84
2022/07/04 00:56:27;;;;;;;6.97;3.17;;;15.80;99.90;;;;;;5088695;28;20193;-84
2022/07/04 00:58:53;;;;;;;5.60;3.90;;;15.70;99.90;;;;;;5090296;28;20185;-84
2022/07/04 01:01:20;;;;;;;4.00;3.20;;;15.60;99.90;;;;;;5088744;28;20180;-85
2022/07/04 01:03:46;;;;;;;5.50;3.77;;;15.50;99.90;;;;;;5089744;28;20202;-84
2022/07/04 01:06:13;;;;;;;4.97;4.07;;;15.60;99.90;;;;;;5089099;28;20197;-84
2022/07/04 01:08:41;;;;;;;6.27;4.20;;;15.50;99.90;;;;;;5091571;28;20209;-84
2022/07/04 01:11:07;;;;;;;5.53;4.10;;;15.30;99.90;;;;;;5092069;28;20221;-84
2022/07/04 01:13:33;;;;;;;5.03;4.00;;;15.40;99.90;;;;;;5091900;28;20165;-84
2022/07/04 01:15:58;;;;;;;5.47;4.67;;;15.50;99.90;;;;;;5087946;28;20188;-84
2022/07/04 01:18:24;;;;;;;4.37;4.00;;;15.60;99.90;;;;;;5090205;28;20174;-84
2022/07/04 01:20:50;;;;;;;7.07;4.90;;;15.40;99.90;;;;;;5090055;28;20483;-85
2022/07/04 01:23:16;;;;;;;8.03;4.33;;;15.40;99.90;;;;;;5090700;28;20196;-85
2022/07/04 01:25:42;;;;;;;5.27;4.40;;;15.60;99.90;;;;;;5091131;28;20185;-84
2022/07/04 01:28:07;;;;;;;6.07;4.47;;;15.60;99.90;;;;;;5090187;28;20208;-84
2022/07/04 01:30:33;;;;;;;7.50;4.10;;;15.40;99.90;;;;;;5089593;28;20204;-84
2022/07/04 01:32:59;;;;;;;10.30;4.03;;;15.30;99.90;;;;;;5090185;28;20173;-84
2022/07/04 01:35:25;;;;;;;6.90;4.30;;;15.10;99.90;;;;;;5091154;28;20252;-84
2022/07/04 01:37:51;;;;;;;6.30;4.83;;;14.90;99.90;;;;;;5091087;28;20612;-84
2022/07/04 01:40:17;;;;;;;4.60;4.13;;;14.90;99.90;;;;;;5090912;28;20427;-84
2022/07/04 01:42:43;;;;;;;5.93;5.13;;;15.00;99.90;;;;;;5090617;28;20176;-84
2022/07/04 01:45:10;;;;;;;5.47;4.93;;;15.20;99.90;;;;;;5089820;28;20197;-85
2022/07/04 01:47:37;;;;;;;5.23;4.67;;;14.80;99.90;;;;;;5091348;28;20227;-85
2022/07/04 01:50:04;;;;;;;6.97;4.83;;;14.90;99.90;;;;;;5090655;28;20263;-85
2022/07/04 01:52:30;;;;;;;7.07;5.20;;;14.90;99.90;;;;;;5090594;28;20282;-85
2022/07/04 01:54:56;;;;;;;8.20;4.87;;;14.80;99.90;;;;;;5092059;28;20176;-85
2022/07/04 01:57:21;;;;;;;8.50;5.50;;;14.70;99.90;;;;;;5089838;28;20271;-85
2022/07/04 02:02:31;;;;;;;6.83;5.23;;;14.70;99.90;;;;;;5090310;28;20198;-85
2022/07/04 02:04:56;;;;;;;7.00;5.87;;;14.50;99.90;;;;;;5091045;28;20176;-85
2022/07/04 02:07:22;;;;;;;6.30;5.33;;;14.50;99.90;;;;;;5092170;28;20208;-85
2022/07/04 02:09:47;;;;;;;9.67;5.57;;;14.50;99.90;;;;;;5091123;28;20184;-85
2022/07/04 02:14:57;;;;;;;9.53;5.80;;;14.60;99.90;;;;;;5090335;28;20354;-85
2022/07/04 02:17:23;;;;;;;8.63;5.43;;;14.50;99.90;;;;;;5090559;28;20193;-85
2022/07/04 02:19:49;;;;;;;7.83;5.97;;;14.60;99.90;;;;;;5090945;28;20666;-84
2022/07/04 02:22:15;;;;;;;6.57;5.97;;;14.60;99.90;;;;;;5091540;28;20283;-85
2022/07/04 02:24:41;;;;;;;10.37;5.80;;;14.50;99.90;;;;;;5091092;28;20192;-84
2022/07/04 02:27:07;;;;;;;12.93;5.97;;;14.50;99.90;;;;;;5084582;28;20302;-84
2022/07/04 02:29:32;;;;;;;6.83;5.87;;;14.50;99.90;;;;;;5088042;28;20172;-84
2022/07/04 02:31:58;;;;;;;8.03;5.90;;;14.40;99.90;;;;;;5081946;28;20660;-85
2022/07/04 02:34:24;;;;;;;11.67;6.03;;;14.40;99.90;;;;;;5089977;28;20183;-85
2022/07/04 02:36:49;;;;;;;9.53;5.80;;;14.40;99.90;;;;;;5092289;28;20200;-85
2022/07/04 02:39:15;;;;;;;8.33;5.87;;;14.30;99.90;;;;;;5092840;28;20176;-84
2022/07/04 02:41:41;;;;;;;11.10;6.40;;;14.40;99.90;;;;;;5091168;28;20239;-84
2022/07/04 02:44:07;;;;;;;9.50;6.03;;;14.40;99.90;;;;;;5088786;28;20179;-85
2022/07/04 02:46:33;;;;;;;10.23;7.07;;;14.30;99.90;;;;;;5084046;28;20207;-84
2022/07/04 02:48:59;;;;;;;10.13;6.30;;;14.30;99.90;;;;;;5079569;28;20180;-85
2022/07/04 02:51:25;;;;;;;7.67;6.13;;;14.20;99.90;;;;;;5076405;28;20177;-85
2022/07/04 02:53:51;;;;;;;12.47;6.43;;;14.20;99.90;;;;;;5077092;28;20171;-84
2022/07/04 02:56:16;;;;;;;10.87;6.87;;;14.20;99.90;;;;;;5078834;28;20616;-84
2022/07/04 02:58:42;;;;;;;9.93;6.80;;;14.40;99.90;;;;;;5078899;28;20560;-85
2022/07/04 03:01:08;;;;;;;11.03;6.70;;;14.40;99.90;;;;;;5077697;28;20546;-84
2022/07/04 03:03:34;;;;;;;8.90;6.90;;;14.30;99.90;;;;;;5079399;28;20300;-85
2022/07/04 03:06:00;;;;;;;9.17;6.43;;;14.40;99.90;;;;;;5079330;28;20200;-85
2022/07/04 03:08:25;;;;;;;11.37;6.03;;;14.20;99.90;;;;;;5079608;28;20203;-85
2022/07/04 03:10:51;;;;;;;8.87;6.30;;;14.10;99.90;;;;;;5077006;28;20173;-85
2022/07/04 03:13:18;;;;;;;8.00;6.17;;;14.00;99.90;;;;;;5077404;28;20605;-85
2022/07/04 03:15:43;;;;;;;9.73;6.07;;;13.90;99.90;;;;;;5077670;28;20211;-85
2022/07/04 03:18:09;;;;;;;8.63;6.00;;;14.00;99.90;;;;;;5077839;28;20177;-84
2022/07/04 03:20:34;;;;;;;9.67;6.83;;;13.90;99.90;;;;;;5075563;28;20176;-84
2022/07/04 03:23:00;;;;;;;11.97;6.40;;;13.90;99.90;;;;;;5074906;28;20204;-84
2022/07/04 03:25:26;;;;;;;9.03;6.67;;;13.90;99.90;;;;;;5077461;28;20251;-84
2022/07/04 03:27:51;;;;;;;10.97;7.53;;;13.90;99.90;;;;;;5077462;28;20235;-84
2022/07/04 03:30:17;;;;;;;12.33;7.20;;;14.00;99.90;;;;;;5076329;28;20168;-85
2022/07/04 03:32:43;;;;;;;11.90;7.07;;;14.00;99.90;;;;;;5076215;28;20170;-84
2022/07/04 03:35:08;;;;;;;7.57;6.30;;;14.00;99.90;;;;;;5078061;28;20645;-84
2022/07/04 03:37:34;;;;;;;7.20;6.50;;;14.00;99.90;;;;;;5078101;28;20171;-85
2022/07/04 03:40:00;;;;;;;12.47;7.17;;;14.10;99.90;;;;;;5078691;28;20549;-84
2022/07/04 03:42:26;;;;;;;10.03;7.13;;;14.00;99.90;;;;;;5081065;28;20648;-85
2022/07/04 03:44:52;;;;;;;15.87;7.33;;;13.90;99.90;;;;;;5080458;28;20317;-85
2022/07/04 03:47:18;;;;;;;9.37;6.90;;;13.90;99.90;;;;;;5080797;28;20265;-85
2022/07/04 03:49:43;;;;;;;10.77;7.00;;;13.90;99.90;;;;;;5084536;28;20575;-85
2022/07/04 03:52:09;;;;;;;9.30;7.03;;;13.70;99.90;;;;;;5082277;28;20310;-85
2022/07/04 03:54:34;;;;;;;13.17;7.40;;;13.70;99.90;;;;;;5082548;28;20195;-85
2022/07/04 03:57:00;;;;;;;12.37;7.63;;;13.70;99.90;;;;;;5083225;28;20195;-85
2022/07/04 03:59:26;;;;;;;8.77;7.13;;;13.70;99.90;;;;;;5082057;28;20224;-85
2022/07/04 04:01:51;;;;;;;10.97;7.30;;;13.70;99.90;;;;;;5080577;28;20662;-85
2022/07/04 04:07:01;;;;;;;10.57;7.13;;;13.80;99.90;;;;;;5076317;28;20205;-85
2022/07/04 04:09:26;;;;;;;10.83;8.07;;;13.80;99.90;;;;;;5075343;28;20169;-85
2022/07/04 04:11:52;;;;;;;12.27;7.77;;;13.80;99.90;;;;;;5075660;28;20173;-85
2022/07/04 04:14:18;;;;;;;10.80;7.50;;;13.80;99.90;;;;;;5076676;28;20306;-84
2022/07/04 04:16:43;;;;;;;10.07;7.47;;;13.90;99.90;;;;;;5074730;28;20224;-84
2022/07/04 04:19:10;;;;;;;11.50;7.90;;;13.90;99.90;;;;;;5076507;28;20180;-85
2022/07/04 04:21:35;;;;;;;12.17;7.97;;;14.00;99.90;;;;;;5077297;28;20254;-84
2022/07/04 04:24:02;;;;;;;13.50;8.33;;;14.00;99.90;;;;;;5075442;28;20207;-85
2022/07/04 04:26:28;;;;;;;10.53;7.90;;;14.10;99.90;;;;;;5077649;28;20193;-85
2022/07/04 04:28:54;;;;;;;12.00;8.27;;;14.10;99.90;;;;;;5077628;28;20207;-85
2022/07/04 04:31:20;;;;;;;10.40;8.13;;;14.40;99.90;;;;;;5076109;28;20234;-85
2022/07/04 04:33:45;;;;;;;11.70;7.20;;;14.30;99.90;;;;;;5077198;28;20222;-85
2022/07/04 04:36:11;;;;;;;13.17;7.20;;;14.60;99.90;;;;;;5078419;28;20203;-85
2022/07/04 04:38:36;;;;;;;7.83;6.27;;;14.70;99.90;;;;;;5077465;28;20179;-85
2022/07/04 04:41:02;;;;;;;8.73;5.77;;;14.90;99.90;;;;;;5077382;28;20173;-85
2022/07/04 04:43:28;;;;;;;11.90;5.60;;;15.50;99.90;;;;;;5076395;28;20583;-85
2022/07/04 04:45:54;;;;;;;9.03;4.70;;;15.80;99.90;;;;;;5077195;28;20188;-85
2022/07/04 04:48:19;;;;;;;7.43;4.43;;;16.10;99.90;;;;;;5077761;28;20204;-85
2022/07/04 04:50:45;;;;;;;6.63;4.20;;;15.90;99.90;;;;;;5075263;28;20267;-86
2022/07/04 04:53:11;;;;;;;10.63;4.57;;;16.50;99.90;;;;;;5076733;28;20219;-85
2022/07/04 04:55:37;;;;;;;4.23;3.83;;;16.50;99.90;;;;;;5077604;28;20180;-85
2022/07/04 04:58:02;;;;;;;6.03;3.92;;;16.80;99.90;;;;;;5083850;22;20226;-85
2022/07/04 05:00:28;;;;;;;5.75;4.20;;;17.30;99.90;;;;;;5075652;28;20173;-84
2022/07/04 05:02:53;;;;;;;4.80;3.55;;;17.30;99.90;;;;;;5071990;22;20229;-85
2022/07/04 05:05:19;;;;;;;7.75;4.00;;;17.50;99.90;;;;;;5056532;28;20166;-84
2022/07/04 05:07:45;;;;;;;6.82;3.90;;;17.30;99.90;;;;;;5056415;28;20205;-84
2022/07/04 05:10:10;;;;;;;7.28;4.22;;;17.20;99.90;;;;;;5055801;28;20219;-84
2022/07/04 05:12:36;;;;;;;7.57;4.30;;;17.30;99.90;;;;;;5054501;28;20568;-84
2022/07/04 05:15:02;;;;;;;4.45;3.97;;;17.40;99.90;;;;;;5055537;28;20170;-84
2022/07/04 05:17:28;;;;;;;6.00;3.95;;;17.40;99.90;;;;;;5055110;28;20271;-85
2022/07/04 05:19:53;;;;;;;9.23;4.15;;;17.50;99.90;;;;;;5056085;28;20653;-83
2022/07/04 05:22:19;;;;;;;5.38;3.65;;;17.60;99.90;;;;;;5056644;28;20568;-84
2022/07/04 05:24:45;;;;;;;5.90;3.60;;;17.90;99.90;;;;;;5054712;28;20177;-85
2022/07/04 05:27:10;;;;;;;5.93;3.65;;;18.10;99.90;;;;;;5055851;28;20582;-85
2022/07/04 05:29:37;;;;;;;4.00;3.35;;;18.20;99.90;;;;;;5055591;28;20165;-85
2022/07/04 05:32:03;;;;;;;6.75;3.25;;;18.80;99.90;;;;;;5055320;28;20334;-84
2022/07/04 05:34:29;;;;;;;9.32;3.65;;;18.30;99.90;;;;;;5055532;28;20170;-84
2022/07/04 05:36:55;;;;;;;6.63;3.33;;;18.40;99.90;;;;;;5054755;28;20709;-83
2022/07/04 05:39:21;;;;;;;12.48;3.70;;;18.20;99.90;;;;;;5056038;28;20657;-83
2022/07/04 05:41:47;;;;;;;5.75;3.53;;;18.50;99.90;;;;;;5056012;28;20581;-84
2022/07/04 05:44:12;;;;;;;11.05;3.20;;;18.70;99.90;;;;;;5056323;28;20223;-84
2022/07/04 05:46:38;;;;;;;5.55;2.90;;;18.90;99.90;;;;;;5054310;28;20178;-84
2022/07/04 05:49:03;;;;;;;5.43;2.70;;;19.20;99.90;;;;;;5055399;28;20207;-84
2022/07/04 05:51:29;;;;;;;8.82;3.50;;;19.40;99.90;;;;;;5055227;28;20231;-85
2022/07/04 05:53:55;;;;;;;8.15;3.03;;;19.70;99.90;;;;;;5054020;28;20173;-85
2022/07/04 05:56:21;;;;;;;6.53;3.17;;;19.80;99.90;;;;;;5054913;28;20193;-84
2022/07/04 05:58:47;;;;;;;7.00;2.90;;;19.70;99.90;;;;;;5053132;28;20606;-84
2022/07/04 06:01:12;;;;;;;5.57;3.08;;;20.20;99.90;;;;;;5053052;28;20180;-84
2022/07/04 06:03:38;;;;;;;8.60;2.72;;;19.90;99.90;;;;;;5053269;28;20185;-84
2022/07/04 06:06:04;;;;;;;3.90;2.60;;;20.60;99.90;;;;;;5055149;28;20180;-85
2022/07/04 06:08:30;;;;;;;5.57;2.33;;;20.20;99.90;;;;;;5055167;28;20611;-84
2022/07/04 06:10:56;;;;;;;6.55;2.83;;;20.60;99.90;;;;;;5056079;28;20196;-84
2022/07/04 06:13:21;;;;;;;3.80;2.38;;;20.70;99.90;;;;;;5056105;28;20627;-85
2022/07/04 06:15:47;;;;;;;5.95;2.35;;;20.50;99.90;;;;;;5053978;28;20598;-85
2022/07/04 06:18:13;;;;;;;4.22;2.03;;;20.90;99.90;;;;;;5055063;28;20736;-85
2022/07/04 06:20:42;;;;;;;3.53;1.98;;;21.10;99.90;;;;;;5054574;28;20273;-84
2022/07/04 06:23:08;;;;;;;2.70;1.60;;;20.90;99.90;;;;;;5054550;28;20544;-83
2022/07/04 06:25:34;;;;;;;4.90;1.75;;;21.50;99.90;;;;;;5054651;28;20169;-85
2022/07/04 06:28:00;;;;;;;5.47;1.70;;;21.90;99.90;;;;;;5054644;28;20212;-84
2022/07/04 06:30:26;;;;;;;4.57;2.03;;;22.00;99.90;;;;;;5053903;28;20174;-84
2022/07/04 06:32:54;;;;;;;6.75;1.63;;;22.20;99.90;;;;;;5053982;28;20177;-84
2022/07/04 06:35:54;;;;;;;5.90;2.00;;;22.30;99.90;;;;;;5054254;28;20177;-85
2022/07/04 06:38:23;;;;;;;3.78;1.50;;;22.10;99.90;;;;;;5053856;28;20190;-85
2022/07/04 06:40:50;;;;;;;4.13;2.00;;;21.80;99.90;;;;;;5054380;28;20173;-84
2022/07/04 06:43:16;;;;;;;3.47;1.70;;;22.20;99.90;;;;;;5053590;28;20590;-84
2022/07/04 06:45:42;;;;;;;5.78;1.70;;;22.00;99.90;;;;;;5054726;28;20185;-84
2022/07/04 06:48:08;;;;;;;3.78;1.80;;;22.60;99.90;;;;;;5052942;28;20424;-85
2022/07/04 06:50:34;;;;;;;5.38;1.98;;;22.90;98.60;;;;;;5054149;28;20176;-85
2022/07/04 06:53:00;;;;;;;5.22;1.95;;;22.10;99.20;;;;;;5053467;28;20197;-84
2022/07/04 06:55:26;;;;;;;3.70;1.83;;;22.30;98.60;;;;;;5055666;28;20176;-85
2022/07/04 06:57:52;;;;;;;4.07;1.98;;;22.40;98.10;;;;;;5056828;28;20189;-85
2022/07/04 07:00:17;;;;;;;6.78;2.00;;;22.30;97.80;;;;;;5055258;28;20192;-85
2022/07/04 07:02:43;;;;;;;4.32;2.25;;;22.30;98.40;;;;;;5055055;28;20283;-85
2022/07/04 07:05:09;;;;;;;3.70;1.75;;;22.30;98.20;;;;;;5057034;28;20181;-85
2022/07/04 07:07:34;;;;;;;12.45;3.90;;;22.70;96.90;;;;;;5054750;28;20204;-84
2022/07/04 07:10:02;;;;;;;223.20;32.65;;;22.80;96.20;;;;;;5056122;28;20170;-85
2022/07/04 07:12:28;;;;;;;14.77;4.70;;;22.40;97.10;;;;;;5055229;28;20264;-84
2022/07/04 07:14:54;;;;;;;6.78;1.92;;;22.60;97.20;;;;;;5053411;28;20215;-84
2022/07/04 07:17:20;;;;;;;10.82;3.25;;;23.30;96.00;;;;;;5053976;28;20204;-84
2022/07/04 07:19:45;;;;;;;144.27;20.58;;;23.00;96.90;;;;;;5055421;28;20173;-84
2022/07/04 07:22:12;;;;;;;40.25;8.63;;;22.70;97.30;;;;;;5053882;28;20528;-85
2022/07/04 07:24:38;;;;;;;19.42;4.38;;;22.60;97.30;;;;;;5054634;28;20181;-84
2022/07/04 07:27:05;;;;;;;23.55;5.68;;;23.10;96.50;;;;;;5055066;28;20630;-85
2022/07/04 07:29:30;;;;;;;7.55;2.80;;;22.90;96.50;;;;;;5054661;28;20177;-83
2022/07/04 07:31:56;;;;;;;2.92;1.70;;;23.60;95.90;;;;;;5053729;28;20176;-84
2022/07/04 07:34:21;;;;;;;11.43;2.80;;;23.60;95.00;;;;;;5051184;28;20630;-85
2022/07/04 07:36:47;;;;;;;31.77;6.30;;;23.50;95.30;;;;;;5050781;28;20166;-84
2022/07/04 07:39:13;;;;;;;6.00;2.10;;;23.40;95.00;;;;;;5049581;28;20560;-85
2022/07/04 07:41:38;;;;;;;6.65;2.60;;;23.90;94.30;;;;;;5050274;28;20196;-85
2022/07/04 07:44:04;;;;;;;5.03;1.70;;;24.20;94.50;;;;;;5051043;28;20199;-84
2022/07/04 07:46:30;;;;;;;2.97;1.85;;;24.20;93.20;;;;;;5051468;28;20616;-84
2022/07/04 07:48:55;;;;;;;6.75;2.70;;;24.10;93.30;;;;;;5050603;28;20205;-84
2022/07/04 07:51:21;;;;;;;5.35;1.80;;;24.40;93.20;;;;;;5053415;28;20162;-84
2022/07/04 07:53:46;;;;;;;3.65;1.60;;;24.80;93.20;;;;;;5053778;28;20196;-84
2022/07/04 07:56:13;;;;;;;6.80;1.80;;;24.10;93.60;;;;;;5052283;28;20215;-83
2022/07/04 07:58:38;;;;;;;3.20;1.80;;;24.40;93.20;;;;;;5053232;28;20193;-82
2022/07/04 08:01:04;;;;;;;3.67;1.77;;;24.00;93.00;;;;;;5053274;28;20180;-83
2022/07/04 08:06:15;;;;;;;2.75;1.80;;;23.70;93.10;;;;;;5053589;28;20180;-84
2022/07/04 08:08:42;;;;;;;4.93;2.10;;;24.50;92.50;;;;;;5052014;28;20204;-84
2022/07/04 08:11:08;;;;;;;4.03;1.95;;;23.80;92.90;;;;;;5052384;28;20594;-83
2022/07/04 08:13:34;;;;;;;5.68;1.70;;;24.30;93.20;;;;;;5052911;28;20177;-84
2022/07/04 08:15:59;;;;;;;3.13;1.77;;;24.70;92.60;;;;;;5052775;28;20584;-83
2022/07/04 08:18:25;;;;;;;3.55;1.70;;;24.70;92.60;;;;;;5052747;28;20213;-83
2022/07/04 08:20:51;;;;;;;6.20;1.98;;;24.50;91.80;;;;;;5052755;28;20226;-83
2022/07/04 08:23:17;;;;;;;6.22;1.77;;;24.10;90.50;;;;;;5052003;28;20577;-85
2022/07/04 08:25:42;;;;;;;8.07;1.83;;;24.50;91.30;;;;;;5053971;28;20180;-84
2022/07/04 08:28:08;;;;;;;2.40;1.40;;;24.80;91.20;;;;;;5057199;28;20209;-84
2022/07/04 08:30:34;;;;;;;3.88;1.20;;;25.30;90.30;;;;;;5054663;28;20166;-84
2022/07/04 08:33:00;;;;;;;5.03;1.27;;;25.50;89.30;;;;;;5056045;28;20174;-84
2022/07/04 08:35:26;;;;;;;6.30;1.65;;;25.60;90.40;;;;;;5055942;28;20637;-83
2022/07/04 08:37:53;;;;;;;11.73;2.40;;;25.80;90.30;;;;;;5056086;28;20194;-83
2022/07/04 08:40:27;;;;;;;3.05;1.42;;;25.80;90.50;;;;;;5056189;28;20664;-83
2022/07/04 08:42:53;;;;;;;5.00;1.38;;;25.80;90.50;;;;;;5055468;28;20189;-84
2022/07/04 08:45:27;;;;;;;6.28;2.00;;;25.80;89.40;;;;;;5055998;28;20216;-84
2022/07/04 08:48:00;;;;;;;8.35;2.17;;;25.60;88.10;;;;;;5053318;28;20668;-83
2022/07/04 08:50:29;;;;;;;4.93;1.60;;;25.50;87.90;;;;;;5055631;28;20518;-84
2022/07/04 08:53:17;;;;;;;3.47;1.30;;;25.50;87.20;;;;;;5053495;28;20176;-84
2022/07/04 08:58:30;;;;;;;3.60;1.25;;;25.10;87.00;;;;;;5056570;28;20251;-83
2022/07/04 09:00:57;;;;;;;4.07;1.30;;;25.50;86.70;;;;;;5055205;28;20177;-83
2022/07/04 09:03:24;;;;;;;2.47;1.58;;;25.60;85.40;;;;;;5055133;28;20177;-83
2022/07/04 09:05:49;;;;;;;6.53;1.30;;;25.50;85.80;;;;;;5054290;28;20319;-83
2022/07/04 09:08:15;;;;;;;2.55;1.17;;;24.30;88.50;;;;;;5055169;28;20303;-83
2022/07/04 09:10:41;;;;;;;5.18;1.13;;;24.10;90.20;;;;;;5054766;28;20181;-84
2022/07/04 09:13:09;;;;;;;1.45;0.98;;;24.90;86.60;;;;;;5055063;28;20649;-82
2022/07/04 09:15:34;;;;;;;3.00;1.20;;;25.50;84.90;;;;;;5053795;28;20256;-84
2022/07/04 09:18:01;;;;;;;1.65;1.15;;;25.80;86.70;;;;;;5054848;28;20693;-82
2022/07/04 09:20:28;;;;;;;4.43;1.13;;;25.80;85.40;;;;;;5054656;28;20650;-82
2022/07/04 09:22:54;;;;;;;3.97;1.10;;;25.10;86.20;;;;;;5054734;28;20174;-83
2022/07/04 09:25:22;;;;;;;2.10;1.00;;;25.40;88.50;;;;;;5055322;28;20170;-82
2022/07/04 09:27:49;;;;;;;5.88;1.00;;;25.40;82.70;;;;;;5055768;28;20247;-83
2022/07/04 09:30:18;;;;;;;2.63;1.15;;;25.90;83.60;;;;;;5055665;28;20598;-84
2022/07/04 09:32:59;;;;;;;3.15;1.02;;;26.60;84.10;;;;;;5055384;28;20178;-85
2022/07/04 09:35:26;;;;;;;3.88;1.00;;;26.50;82.70;;;;;;5054139;28;20589;-84
2022/07/04 09:37:57;;;;;;;2.78;1.02;;;26.20;80.20;;;;;;5052877;28;20804;-83
2022/07/04 09:40:28;;;;;;;1.33;1.00;;;26.10;82.70;;;;;;5055220;28;20177;-84
2022/07/04 09:42:55;;;;;;;2.75;1.00;;;26.50;81.30;;;;;;5054135;28;20170;-83
2022/07/04 09:45:23;;;;;;;5.78;1.20;;;26.90;81.70;;;;;;5054760;28;20177;-84
2022/07/04 09:47:50;;;;;;;3.90;1.33;;;27.00;81.40;;;;;;5053734;28;20562;-83
2022/07/04 09:50:19;;;;;;;4.95;1.75;;;26.60;79.70;;;;;;5054341;28;20483;-83
2022/07/04 09:52:47;;;;;;;2.30;1.20;;;26.50;80.30;;;;;;5052782;28;20544;-84
2022/07/04 09:55:19;;;;;;;1.38;1.10;;;26.30;81.60;;;;;;5054420;28;20173;-83
2022/07/04 09:57:47;;;;;;;5.03;1.13;;;26.90;78.70;;;;;;5052886;28;20197;-84
2022/07/04 10:00:22;;;;;;;1.15;1.00;;;26.70;80.80;;;;;;5056431;28;20165;-80
2022/07/04 10:02:49;;;;;;;3.42;1.10;;;27.20;80.30;;;;;;5067637;28;20187;-84
2022/07/04 10:05:35;;;;;;;1.83;0.98;;;26.70;79.60;;;;;;5058596;28;20165;-82
2022/07/04 10:08:00;;;;;;;2.45;0.93;;;26.80;80.20;;;;;;5054237;28;20292;-85
2022/07/04 10:10:33;;;;;;;2.13;1.00;;;26.60;79.20;;;;;;5055245;28;20705;-84
2022/07/04 10:13:03;;;;;;;2.53;1.13;;;26.90;78.00;;;;;;5054888;28;20165;-85
2022/07/04 10:15:29;;;;;;;9.55;1.23;;;27.00;78.50;;;;;;5054917;28;20227;-84
2022/07/04 10:17:55;;;;;;;4.47;1.30;;;27.00;76.80;;;;;;5053474;28;20197;-84
2022/07/04 10:20:20;;;;;;;4.85;1.27;;;27.20;77.80;;;;;;5055068;28;20546;-85
2022/07/04 10:22:46;;;;;;;3.35;1.00;;;27.10;77.60;;;;;;5054064;28;20174;-85
2022/07/04 10:25:12;;;;;;;1.05;0.75;;;26.80;76.20;;;;;;5054340;28;20173;-85
2022/07/04 10:27:38;;;;;;;2.15;0.90;;;26.70;77.50;;;;;;5052950;28;20657;-83
2022/07/04 10:30:09;;;;;;;3.35;1.00;;;26.90;76.90;;;;;;5052748;28;20165;-84
2022/07/04 10:32:35;;;;;;;1.10;0.90;;;27.50;75.60;;;;;;5054035;28;20189;-84
2022/07/04 10:35:01;;;;;;;1.70;1.00;;;27.80;76.10;;;;;;5054022;28;20535;-84
2022/07/04 10:38:07;;;;;;;1.92;1.00;;;27.70;76.30;;;;;;5053952;28;20193;-83
2022/07/04 10:40:48;;;;;;;2.30;0.80;;;27.30;76.90;;;;;;5052949;28;20268;-84
2022/07/04 10:43:41;;;;;;;0.90;0.85;;;26.70;75.90;;;;;;5052060;28;20599;-84
2022/07/04 10:46:15;;;;;;;4.15;1.20;;;25.90;76.50;;;;;;5053860;28;20169;-84
2022/07/04 10:48:55;;;;;;;3.42;1.10;;;25.10;79.40;;;;;;5052218;28;20299;-84
2022/07/04 10:51:35;;;;;;;4.30;1.08;;;26.10;80.10;;;;;;5053288;28;20165;-83
2022/07/04 10:54:04;;;;;;;5.70;0.98;;;27.00;76.80;;;;;;5053611;28;20168;-84
2022/07/04 10:56:41;;;;;;;4.22;1.10;;;26.20;77.30;;;;;;5053580;28;20173;-84
2022/07/04 10:59:09;;;;;;;1.13;0.90;;;25.60;77.80;;;;;;5053351;28;20704;-83
2022/07/04 11:04:00;;;;;;;2.97;1.02;;;25.10;78.20;;;;;;5089698;22;20232;-79
2022/07/04 11:06:36;;;;;;;3.15;1.00;;;25.10;78.50;;;;;;5073569;28;20168;-79
2022/07/04 11:09:19;;;;;;;2.63;1.23;;;25.30;77.40;;;;;;5073149;28;20234;-78
2022/07/04 11:11:54;;;;;;;2.45;1.00;;;26.10;80.00;;;;;;5078550;23;20747;-85
2022/07/04 11:14:35;;;;;;;3.35;1.23;;;27.30;78.20;;;;;;5048931;28;20552;-85
2022/07/04 11:17:02;;;;;;;1.92;1.10;;;27.10;76.30;;;;;;5052592;28;20649;-86
2022/07/04 11:19:27;;;;;;;3.42;1.00;;;26.70;77.30;;;;;;5051748;28;20176;-85
2022/07/04 11:21:57;;;;;;;2.97;1.00;;;26.50;76.40;;;;;;5053827;28;20169;-86
2022/07/04 11:24:24;;;;;;;4.97;1.00;;;25.90;77.90;;;;;;5052565;28;20248;-85
2022/07/04 11:26:51;;;;;;;2.55;1.20;;;25.90;78.40;;;;;;5051875;28;20168;-86
2022/07/04 11:29:17;;;;;;;2.47;1.08;;;26.50;80.00;;;;;;5051347;28;20213;-86
2022/07/04 11:31:45;;;;;;;1.38;0.80;;;27.80;76.00;;;;;;5052746;28;20528;-85
2022/07/04 11:34:11;;;;;;;6.97;1.00;;;28.50;77.00;;;;;;5050753;28;20676;-85
2022/07/04 11:36:42;;;;;;;1.55;1.00;;;29.10;75.10;;;;;;5051292;28;20219;-85
2022/07/04 11:39:11;;;;;;;2.10;1.05;;;27.60;75.30;;;;;;5052944;28;20161;-86
2022/07/04 11:47:16;;;;;;;2.15;0.90;;;26.20;78.00;;;;;;5052323;28;20571;-86
2022/07/04 11:49:51;;;;;;;4.45;1.17;;;26.40;77.90;;;;;;5051482;28;20197;-85
2022/07/04 11:52:21;;;;;;;1.85;1.10;;;26.50;77.90;;;;;;5050006;28;20189;-85
2022/07/04 11:54:48;;;;;;;2.65;1.00;;;27.10;76.90;;;;;;5050710;28;20269;-85
2022/07/04 11:57:14;;;;;;;1.30;1.20;;;27.40;77.00;;;;;;5050631;28;20181;-85
2022/07/04 11:59:40;;;;;;;2.00;1.00;;;27.90;75.90;;;;;;5051385;28;20188;-85
2022/07/04 12:02:12;;;;;;;2.70;1.40;;;27.30;75.00;;;;;;5054648;28;20215;-86
2022/07/04 12:04:38;;;;;;;2.97;1.30;;;26.40;76.50;;;;;;5055867;28;20196;-85
2022/07/04 12:07:16;;;;;;;1.42;1.20;;;26.30;77.90;;;;;;5054187;28;20169;-85
2022/07/04 12:09:42;;;;;;;4.78;1.20;;;26.40;77.30;;;;;;5055302;28;20528;-86
2022/07/04 12:12:09;;;;;;;2.08;1.02;;;26.40;78.20;;;;;;5053952;28;20209;-85
2022/07/04 12:14:35;;;;;;;1.38;1.17;;;27.00;75.50;;;;;;5055134;28;20169;-85
2022/07/04 12:17:16;;;;;;;2.28;1.10;;;27.50;75.30;;;;;;5054719;28;20637;-87
2022/07/04 12:19:56;;;;;;;3.33;1.13;;;27.20;77.10;;;;;;5053642;28;20165;-85
2022/07/04 12:22:31;;;;;;;3.53;1.10;;;27.20;74.10;;;;;;5054616;28;20201;-86
2022/07/04 12:24:58;;;;;;;1.27;1.20;;;27.00;75.20;;;;;;5055669;28;20175;-87
2022/07/04 12:27:25;;;;;;;2.08;1.15;;;26.90;76.20;;;;;;5055460;28;20200;-87
2022/07/04 12:29:52;;;;;;;1.17;1.10;;;26.90;76.30;;;;;;5055143;28;20181;-87
2022/07/04 12:32:18;;;;;;;3.03;1.10;;;26.90;76.80;;;;;;5054506;28;20716;-87
2022/07/04 12:34:44;;;;;;;4.85;1.15;;;26.70;77.40;;;;;;5053933;28;20196;-86
2022/07/04 12:37:16;;;;;;;1.90;1.25;;;26.80;76.20;;;;;;5053821;28;20170;-86
2022/07/04 12:39:46;;;;;;;3.90;1.23;;;26.90;76.80;;;;;;5054662;28;20606;-87
2022/07/04 12:42:19;;;;;;;2.00;1.20;;;27.10;76.10;;;;;;5055686;28;20182;-88
2022/07/04 12:44:49;;;;;;;2.08;1.23;;;27.00;76.00;;;;;;5054967;28;20177;-86
2022/07/04 12:47:15;;;;;;;1.92;1.30;;;26.60;75.60;;;;;;5055217;28;20174;-87
2022/07/04 12:49:45;;;;;;;5.55;1.48;;;26.50;76.60;;;;;;5053855;28;20177;-87
2022/07/04 12:52:18;;;;;;;2.30;1.13;;;26.50;75.70;;;;;;5054069;28;20205;-87
2022/07/04 12:54:47;;;;;;;1.85;1.00;;;26.10;77.00;;;;;;5054613;28;20157;-87
2022/07/04 12:57:15;;;;;;;4.93;1.10;;;26.50;76.60;;;;;;5054246;28;20275;-87
2022/07/04 12:59:41;;;;;;;1.63;1.00;;;26.10;78.00;;;;;;5053711;28;20175;-87
2022/07/04 13:02:08;;;;;;;4.28;1.38;;;26.40;77.50;;;;;;5055411;28;20182;-86
2022/07/04 13:04:34;;;;;;;3.83;1.30;;;26.90;77.00;;;;;;5055601;28;20176;-85
2022/07/04 13:07:14;;;;;;;1.52;1.00;;;27.00;76.70;;;;;;5053735;28;20173;-85